Time;durP1;ratioP1;P1;durP2;ratioP2;P2;SDS_P1;SDS_P2;PMS_P1;PMS_P2;Temp;Humidity;BMP_temperature;BMP_pressure;BME280_temperature;BME280_humidity;BME280_pressure;Samples;Min_cycle;Max_cycle;Signal;HPM_P1;HPM_P2
2021/12/22 04:20:33;;;;;;;;;;;0.20;99.90;;;;;;5204140;22;19971;-80
2021/12/22 04:23:00;;;;;;;;;;;0.20;99.90;;;;;;5092869;28;20313;-80
2021/12/22 04:25:27;;;;;;;;;;;0.20;99.90;;;;;;5082245;28;19938;-80
2021/12/22 04:27:56;;;;;;;;;;;0.20;99.90;;;;;;5082076;28;19930;-80
2021/12/22 04:30:24;;;;;;;;;;;0.20;99.90;;;;;;5081403;28;19935;-80
2021/12/22 04:32:51;;;;;;;;;;;0.20;99.90;;;;;;5088434;28;19928;-79
2021/12/22 04:35:18;;;;;;;;;;;0.20;99.90;;;;;;5069998;28;20023;-80
2021/12/22 04:37:46;;;;;;;;;;;0.20;99.90;;;;;;5080230;28;20296;-79
2021/12/22 04:40:13;;;;;;;;;;;0.20;99.90;;;;;;5086977;28;20431;-80
2021/12/22 04:42:40;;;;;;;;;;;0.20;99.90;;;;;;5085816;28;19924;-80
2021/12/22 04:45:08;;;;;;;;;;;0.20;99.90;;;;;;5070641;28;19924;-80
2021/12/22 04:47:35;;;;;;;;;;;0.10;99.90;;;;;;5063589;28;20443;-80
2021/12/22 04:50:03;;;;;;;;;;;0.10;99.90;;;;;;5066209;28;19924;-79
2021/12/22 04:52:38;;;;;;;;;;;0.10;99.90;;;;;;5068227;28;19935;-80
2021/12/22 04:55:07;;;;;;;;;;;0.10;99.90;;;;;;5069181;28;20629;-80
2021/12/22 04:57:34;;;;;;;;;;;0.10;99.90;;;;;;5071520;28;19939;-80
2021/12/22 05:00:01;;;;;;;;;;;0.10;99.90;;;;;;5071297;28;20431;-80
2021/12/22 05:02:28;;;;;;;;;;;0.10;99.90;;;;;;5069308;28;19924;-80
2021/12/22 05:04:55;;;;;;;;;;;0.10;99.90;;;;;;5071608;28;19924;-80
2021/12/22 05:07:22;;;;;;;;;;;0.10;99.90;;;;;;5089394;28;19924;-80
2021/12/22 05:09:49;;;;;;;;;;;0.10;99.90;;;;;;5070851;28;19932;-80
2021/12/22 05:12:17;;;;;;;;;;;0.10;99.90;;;;;;5083706;28;20372;-81
2021/12/22 05:14:47;;;;;;;;;;;0.10;99.90;;;;;;5067952;28;19928;-80
2021/12/22 05:17:20;;;;;;;;;;;0.10;99.90;;;;;;5068540;28;20015;-80
2021/12/22 05:19:47;;;;;;;;;;;0.10;99.90;;;;;;5084619;28;19928;-79
2021/12/22 05:22:14;;;;;;;;;;;0.10;99.90;;;;;;5066604;28;20414;-79
2021/12/22 05:24:41;;;;;;;;;;;0.10;99.90;;;;;;5074123;28;19939;-78
2021/12/22 05:27:11;;;;;;;;;;;0.10;99.90;;;;;;5069848;28;19936;-79
2021/12/22 05:29:39;;;;;;;;;;;0.10;99.90;;;;;;5077842;28;19932;-78
2021/12/22 05:32:07;;;;;;;;;;;0.10;99.90;;;;;;5061430;28;19925;-79
2021/12/22 05:34:34;;;;;;;;;;;0.10;99.90;;;;;;5072795;28;19933;-80
2021/12/22 05:37:00;;;;;;;;;;;0.10;99.90;;;;;;5067069;28;19925;-80
2021/12/22 05:39:28;;;;;;;;;;;0.10;99.90;;;;;;5064208;28;19932;-79
2021/12/22 05:41:55;;;;;;;;;;;0.10;99.90;;;;;;5067091;28;19932;-80
2021/12/22 05:44:22;;;;;;;;;;;0.10;99.90;;;;;;5064175;28;20320;-79
2021/12/22 05:46:50;;;;;;;;;;;0.10;99.90;;;;;;5086318;28;20375;-79
2021/12/22 05:49:17;;;;;;;;;;;0.10;99.90;;;;;;5086210;28;19928;-79
2021/12/22 05:51:44;;;;;;;;;;;0.00;99.90;;;;;;5070125;28;19985;-79
2021/12/22 05:54:11;;;;;;;;;;;0.10;99.90;;;;;;5087735;28;19928;-80
2021/12/22 05:56:38;;;;;;;;;;;0.00;99.90;;;;;;5083781;28;19925;-79
2021/12/22 05:59:05;;;;;;;;;;;0.00;99.90;;;;;;5079061;28;20006;-79
2021/12/22 06:01:32;;;;;;;;;;;0.00;99.90;;;;;;5068912;28;20297;-80
2021/12/22 06:04:02;;;;;;;;;;;0.00;99.90;;;;;;5066076;28;19928;-80
2021/12/22 06:06:30;;;;;;;;;;;0.00;99.90;;;;;;5068045;28;19930;-79
2021/12/22 06:08:57;;;;;;;;;;;0.00;99.90;;;;;;5081264;28;19932;-79
2021/12/22 06:11:24;;;;;;;;;;;0.00;99.90;;;;;;5068546;28;19970;-79
2021/12/22 06:13:51;;;;;;;;;;;0.00;99.90;;;;;;5073891;28;19959;-79
2021/12/22 06:16:18;;;;;;;;;;;0.00;99.90;;;;;;5074802;28;20389;-79
2021/12/22 06:18:47;;;;;;;;;;;0.00;99.90;;;;;;5049642;28;19931;-79
2021/12/22 06:21:16;;;;;;;;;;;0.00;99.90;;;;;;5063004;28;19939;-79
2021/12/22 06:23:43;;;;;;;;;;;0.00;99.90;;;;;;5087116;28;19931;-79
2021/12/22 06:26:10;;;;;;;;;;;0.00;99.90;;;;;;5063696;28;19928;-80
2021/12/22 06:28:36;;;;;;;;;;;-0.10;99.90;;;;;;5076961;28;19931;-79
2021/12/22 06:31:04;;;;;;;;;;;-0.10;99.90;;;;;;5079797;28;19931;-79
2021/12/22 06:33:30;;;;;;;;;;;0.00;99.90;;;;;;5080665;28;19927;-79
2021/12/22 06:35:58;;;;;;;;;;;-0.10;99.90;;;;;;5088960;28;19935;-79
2021/12/22 06:38:26;;;;;;;;;;;0.00;99.90;;;;;;5066777;28;20413;-79
2021/12/22 06:40:53;;;;;;;;;;;-0.10;99.90;;;;;;5062310;28;19931;-79
2021/12/22 06:43:20;;;;;;;;;;;-0.10;99.90;;;;;;5089132;28;19925;-79
2021/12/22 06:45:47;;;;;;;;;;;-0.10;99.90;;;;;;5070788;28;19924;-79
2021/12/22 06:48:14;;;;;;;;;;;-0.10;99.90;;;;;;5072403;28;20374;-78
2021/12/22 06:50:41;;;;;;;;;;;-0.10;99.90;;;;;;5070643;28;20015;-78
2021/12/22 06:53:07;;;;;;;;;;;-0.10;99.90;;;;;;5070554;28;19931;-79
2021/12/22 06:55:36;;;;;;;;;;;-0.10;99.90;;;;;;5082703;28;19932;-80
2021/12/22 06:58:03;;;;;;;;;;;-0.10;99.90;;;;;;5068680;28;19943;-79
2021/12/22 07:00:30;;;;;;;;;;;-0.10;99.90;;;;;;5070320;28;19924;-78
2021/12/22 07:02:58;;;;;;;;;;;-0.10;99.90;;;;;;5079822;28;19971;-79
2021/12/22 07:05:24;;;;;;;;;;;-0.10;99.90;;;;;;5071754;28;19929;-80
2021/12/22 07:07:51;;;;;;;;;;;-0.10;99.90;;;;;;5074332;28;20386;-80
2021/12/22 07:10:19;;;;;;;;;;;-0.20;99.90;;;;;;5071916;28;20037;-78
2021/12/22 07:12:48;;;;;;;;;;;-0.20;99.90;;;;;;5089530;28;19932;-78
2021/12/22 07:15:15;;;;;;;;;;;-0.20;99.90;;;;;;5081525;28;20412;-78
2021/12/22 07:17:42;;;;;;;;;;;-0.20;99.90;;;;;;5089433;28;19958;-79
2021/12/22 07:20:11;;;;;;;;;;;-0.20;99.90;;;;;;5069944;28;19924;-79
2021/12/22 07:22:38;;;;;;;;;;;-0.20;99.90;;;;;;5079866;28;19924;-80
2021/12/22 07:25:06;;;;;;;;;;;-0.20;99.90;;;;;;5063311;28;22724;-80
2021/12/22 07:27:33;;;;;;;;;;;-0.30;99.90;;;;;;5074912;28;19932;-80
2021/12/22 07:30:01;;;;;;;;;;;-0.30;99.90;;;;;;5054029;28;19928;-80
2021/12/22 07:32:28;;;;;;;;;;;-0.30;99.90;;;;;;5070788;28;19928;-79
2021/12/22 07:34:58;;;;;;;;;;;-0.30;99.90;;;;;;5061158;28;20329;-79
2021/12/22 07:37:28;;;;;;;;;;;-0.30;99.90;;;;;;5064211;28;19988;-79
2021/12/22 07:39:55;;;;;;;;;;;-0.30;99.90;;;;;;5080822;28;19931;-79
2021/12/22 07:42:22;;;;;;;;;;;-0.30;99.90;;;;;;5083262;28;20300;-79
2021/12/22 07:44:49;;;;;;;;;;;-0.30;99.90;;;;;;5057856;28;20352;-79
2021/12/22 07:47:17;;;;;;;;;;;-0.30;99.90;;;;;;5078668;28;19924;-80
2021/12/22 07:49:44;;;;;;;;;;;-0.30;99.90;;;;;;5080265;28;19928;-78
2021/12/22 07:52:11;;;;;;;;;;;-0.40;99.90;;;;;;5083022;28;19925;-79
2021/12/22 07:54:39;;;;;;;;;;;-0.40;99.90;;;;;;5059671;28;19967;-79
2021/12/22 07:57:06;;;;;;;;;;;-0.40;99.90;;;;;;5062739;28;19948;-79
2021/12/22 07:59:33;;;;;;;;;;;-0.40;99.90;;;;;;5079790;28;19931;-79
2021/12/22 08:02:00;;;;;;;;;;;-0.40;99.90;;;;;;5074837;28;19948;-79
2021/12/22 08:04:28;;;;;;;;;;;-0.40;99.90;;;;;;5069353;28;19928;-80
2021/12/22 08:06:55;;;;;;;;;;;-0.40;99.90;;;;;;5086356;28;19999;-79
2021/12/22 08:09:26;;;;;;;;;;;-0.40;99.90;;;;;;5064908;28;19967;-79
2021/12/22 08:11:53;;;;;;;;;;;-0.40;99.90;;;;;;5071476;28;19935;-80
2021/12/22 08:14:22;;;;;;;;;;;-0.40;99.90;;;;;;5068324;28;20044;-79
2021/12/22 08:16:49;;;;;;;;;;;-0.50;99.90;;;;;;5089465;28;20669;-79
2021/12/22 08:19:16;;;;;;;;;;;-0.50;99.90;;;;;;5063591;28;19935;-79
2021/12/22 08:21:47;;;;;;;;;;;-0.50;99.90;;;;;;5061303;28;19974;-80
2021/12/22 08:24:15;;;;;;;;;;;-0.50;99.90;;;;;;5066605;28;20290;-80
2021/12/22 08:26:42;;;;;;;;;;;-0.50;99.90;;;;;;5071268;28;20430;-79
2021/12/22 08:29:09;;;;;;;;;;;-0.50;99.90;;;;;;5079648;28;19924;-79
2021/12/22 08:31:36;;;;;;;;;;;-0.50;99.90;;;;;;5063375;28;19924;-79
2021/12/22 08:34:04;;;;;;;;;;;-0.50;99.90;;;;;;5060059;28;19931;-79
2021/12/22 08:39:17;;;;;;;;;;;-0.50;99.90;;;;;;5082117;28;19985;-80
2021/12/22 08:41:47;;;;;;;;;;;-0.50;99.90;;;;;;5066748;28;19924;-80
2021/12/22 08:44:17;;;;;;;;;;;-0.50;99.90;;;;;;5067165;28;20541;-80
2021/12/22 08:46:46;;;;;;;;;;;-0.50;99.90;;;;;;5066814;28;19925;-80
2021/12/22 08:49:13;;;;;;;;;;;-0.50;99.90;;;;;;5062459;28;19977;-80
2021/12/22 08:51:40;;;;;;;;;;;-0.50;99.90;;;;;;5063966;28;20332;-80
2021/12/22 08:54:07;;;;;;;;;;;-0.50;99.90;;;;;;5065501;28;20015;-80
2021/12/22 08:56:36;;;;;;;;;;;-0.50;99.90;;;;;;5068350;28;19928;-80
2021/12/22 08:59:04;;;;;;;;;;;-0.50;99.90;;;;;;5079887;28;19975;-79
2021/12/22 09:01:31;;;;;;;;;;;-0.50;99.90;;;;;;5061666;28;19932;-79
2021/12/22 09:03:58;;;;;;;;;;;-0.50;99.90;;;;;;5063771;28;19928;-79
2021/12/22 09:06:25;;;;;;;;;;;-0.50;99.90;;;;;;5072860;28;19977;-79
2021/12/22 09:08:52;;;;;;;;;;;-0.50;99.90;;;;;;5067694;28;20304;-79
2021/12/22 09:11:20;;;;;;;;;;;-0.50;99.90;;;;;;5086472;28;19924;-78
2021/12/22 09:13:48;;;;;;;;;;;-0.50;99.90;;;;;;5079056;28;20360;-79
2021/12/22 09:16:15;;;;;;;;;;;-0.50;99.90;;;;;;5082458;28;19939;-79
2021/12/22 09:18:42;;;;;;;;;;;-0.50;99.90;;;;;;5060588;28;20453;-79
2021/12/22 09:21:10;;;;;;;;;;;-0.50;99.90;;;;;;5060858;28;19932;-79
2021/12/22 09:23:38;;;;;;;;;;;-0.60;99.90;;;;;;5082461;28;19924;-79
2021/12/22 09:26:05;;;;;;;;;;;-0.60;99.90;;;;;;5080931;28;20343;-79
2021/12/22 09:28:32;;;;;;;;;;;-0.60;99.90;;;;;;5074466;28;20381;-80
2021/12/22 09:31:01;;;;;;;;;;;-0.60;99.90;;;;;;5058394;28;19932;-79
2021/12/22 09:33:28;;;;;;;;;;;-0.60;99.90;;;;;;5077212;28;19977;-79
2021/12/22 09:35:56;;;;;;;;;;;-0.60;99.90;;;;;;5061987;28;20012;-79
2021/12/22 09:38:23;;;;;;;;;;;-0.60;99.90;;;;;;5082628;28;19932;-79
2021/12/22 09:40:50;;;;;;;;;;;-0.60;99.90;;;;;;5077561;28;19936;-80
2021/12/22 09:43:20;;;;;;;;;;;-0.50;99.90;;;;;;5076371;28;20023;-79
2021/12/22 09:45:51;;;;;;;;;;;-0.60;99.90;;;;;;5078780;28;19924;-79
2021/12/22 09:48:36;;;;;;;;;;;-0.60;99.90;;;;;;5081995;28;19962;-79
2021/12/22 09:53:54;;;;;;;;;;;-0.60;99.90;;;;;;5043385;28;19950;-80
2021/12/22 09:56:23;;;;;;;;;;;-0.60;99.90;;;;;;5068838;28;19974;-80
2021/12/22 09:58:53;;;;;;;;;;;-0.60;99.90;;;;;;5072742;28;19924;-80
2021/12/22 10:01:23;;;;;;;;;;;-0.60;99.90;;;;;;5093094;28;19985;-81
2021/12/22 10:03:51;;;;;;;;;;;-0.60;99.90;;;;;;5068439;28;19924;-80
2021/12/22 10:06:21;;;;;;;;;;;-0.60;99.90;;;;;;5066901;28;19946;-80
2021/12/22 10:08:51;;;;;;;;;;;-0.60;99.90;;;;;;5097585;28;20014;-80
2021/12/22 10:11:19;;;;;;;;;;;-0.60;99.90;;;;;;5089433;28;19989;-80
2021/12/22 10:13:46;;;;;;;;;;;-0.60;99.90;;;;;;5074502;28;19971;-80
2021/12/22 10:16:18;;;;;;;;;;;-0.60;99.90;;;;;;5086224;28;20010;-80
2021/12/22 10:18:48;;;;;;;;;;;-0.60;99.90;;;;;;5083830;28;19924;-80
2021/12/22 10:21:18;;;;;;;;;;;-0.60;99.90;;;;;;5068646;28;20115;-80
2021/12/22 10:23:46;;;;;;;;;;;-0.60;99.90;;;;;;5087047;28;19973;-81
2021/12/22 10:26:16;;;;;;;;;;;-0.60;99.90;;;;;;5065911;28;19958;-80
2021/12/22 10:28:48;;;;;;;;;;;-0.60;99.90;;;;;;5089087;28;19925;-80
2021/12/22 10:31:18;;;;;;;;;;;-0.60;99.90;;;;;;5066336;28;19928;-80
2021/12/22 10:33:46;;;;;;;;;;;-0.60;99.90;;;;;;5084517;28;19927;-81
2021/12/22 10:36:14;;;;;;;;;;;-0.60;99.90;;;;;;5075106;28;19986;-80
2021/12/22 10:38:49;;;;;;;;;;;-0.60;99.90;;;;;;5089947;28;20313;-80
2021/12/22 10:41:16;;;;;;;;;;;-0.60;99.90;;;;;;5072155;28;20566;-80
2021/12/22 10:43:45;;;;;;;;;;;-0.60;99.90;;;;;;5073502;28;19932;-80
2021/12/22 10:46:15;;;;;;;;;;;-0.60;99.90;;;;;;5074616;28;19924;-80
2021/12/22 10:51:28;;;;;;;;;;;-0.60;99.90;;;;;;5074966;28;20409;-81
2021/12/22 10:54:00;;;;;;;;;;;-0.60;99.90;;;;;;5089173;28;19955;-80
2021/12/22 10:56:28;;;;;;;;;;;-0.60;99.90;;;;;;5091192;28;19928;-80
2021/12/22 10:59:01;;;;;;;;;;;-0.60;99.90;;;;;;5074688;28;20405;-81
2021/12/22 11:01:30;;;;;;;;;;;-0.60;99.90;;;;;;5059311;28;19938;-81
2021/12/22 11:04:03;;;;;;;;;;;-0.60;99.90;;;;;;5072807;28;19924;-80
2021/12/22 11:06:35;;;;;;;;;;;-0.60;99.90;;;;;;5075506;28;20027;-81
2021/12/22 11:09:04;;;;;;;;;;;-0.60;99.90;;;;;;5073496;28;19931;-80
2021/12/22 11:11:36;;;;;;;;;;;-0.60;99.90;;;;;;5090322;28;20310;-81
2021/12/22 11:14:04;;;;;;;;;;;-0.50;99.90;;;;;;5069994;28;19932;-80
2021/12/22 11:16:32;;;;;;;;;;;-0.50;99.90;;;;;;5095465;28;20404;-81
2021/12/22 11:19:09;;;;;;;;;;;-0.60;99.90;;;;;;5086678;28;20397;-81
2021/12/22 11:21:37;;;;;;;;;;;-0.50;99.90;;;;;;5084031;28;19924;-80
2021/12/22 11:24:06;;;;;;;;;;;-0.50;99.90;;;;;;5087015;28;20412;-79
2021/12/22 11:26:33;;;;;;;;;;;-0.50;99.90;;;;;;5093670;28;20348;-79
2021/12/22 11:29:00;;;;;;;;;;;-0.50;99.90;;;;;;5084498;28;19956;-79
2021/12/22 11:31:27;;;;;;;;;;;-0.50;99.90;;;;;;5101888;22;20436;-83
2021/12/22 11:33:55;;;;;;;;;;;-0.50;99.90;;;;;;5069896;28;20473;-83
2021/12/22 11:36:28;;;;;;;;;;;-0.50;99.90;;;;;;5084796;28;20005;-83
2021/12/22 11:38:56;;;;;;;;;;;-0.50;99.90;;;;;;5086214;28;20500;-94
2021/12/22 11:41:24;;;;;;;;;;;-0.50;99.90;;;;;;5069849;28;20015;-82
2021/12/22 11:43:55;;;;;;;;;;;-0.50;99.90;;;;;;5081842;28;19932;-84
2021/12/22 11:46:27;;;;;;;;;;;-0.40;99.90;;;;;;5073915;28;19924;-84
2021/12/22 11:48:54;;;;;;;;;;;-0.40;99.90;;;;;;5073007;28;19924;-82
2021/12/22 11:51:25;;;;;;;;;;;-0.40;99.90;;;;;;5091844;28;19978;-83
2021/12/22 11:53:59;;;;;;;;;;;-0.40;99.90;;;;;;5080681;28;20019;-84
2021/12/22 11:56:44;;;;;;;;;;;-0.40;99.90;;;;;;5079086;28;19928;-86
2021/12/22 11:59:28;;;;;;;;;;;-0.40;99.90;;;;;;5069828;28;19932;-86
2021/12/22 12:02:14;;;;;;;;;;;-0.40;99.90;;;;;;5104519;28;20015;-84
2021/12/22 12:04:41;;;;;;;;;;;-0.30;99.90;;;;;;5097822;28;19977;-84
2021/12/22 12:07:09;;;;;;;;;;;-0.40;99.90;;;;;;5093034;28;19925;-83
2021/12/22 12:09:46;;;;;;;;;;;-0.40;99.90;;;;;;5068581;28;20014;-84
2021/12/22 12:12:31;;;;;;;;;;;-0.30;99.90;;;;;;5067335;28;20024;-83
2021/12/22 12:15:11;;;;;;;;;;;-0.40;99.90;;;;;;5076554;28;19935;-85
2021/12/22 12:23:22;;;;;;;;;;;-0.30;99.90;;;;;;5088459;28;19920;-84
2021/12/22 12:25:49;;;;;;;;;;;-0.30;99.90;;;;;;5086584;28;19938;-84
2021/12/22 12:28:20;;;;;;;;;;;-0.30;99.90;;;;;;5073040;28;19935;-81
2021/12/22 12:30:49;;;;;;;;;;;-0.30;99.90;;;;;;5076946;28;19966;-91
2021/12/22 12:33:24;;;;;;;;;;;-0.30;99.90;;;;;;5089410;28;20023;-83
2021/12/22 12:35:58;;;;;;;;;;;-0.30;99.90;;;;;;5066702;28;19977;-86
2021/12/22 12:38:30;;;;;;;;;;;-0.30;99.90;;;;;;5084389;28;20405;-85
2021/12/22 12:41:16;;;;;;;;;;;-0.20;99.90;;;;;;5063525;28;20402;-91
2021/12/22 12:44:05;;;;;;;;;;;-0.20;99.90;;;;;;5077773;28;20275;-80
2021/12/22 12:46:39;;;;;;;;;;;-0.30;99.90;;;;;;5085201;28;19925;-80
2021/12/22 12:49:25;;;;;;;;;;;-0.30;99.90;;;;;;5079715;28;19932;-82
2021/12/22 12:51:56;;;;;;;;;;;-0.20;99.90;;;;;;5081825;28;20441;-81
2021/12/22 12:54:27;;;;;;;;;;;-0.20;99.90;;;;;;5063592;28;20019;-80
2021/12/22 12:56:55;;;;;;;;;;;-0.20;99.90;;;;;;5077544;28;20048;-84
2021/12/22 12:59:26;;;;;;;;;;;-0.20;99.90;;;;;;5081289;28;20481;-81
2021/12/22 13:02:01;;;;;;;;;;;-0.20;99.90;;;;;;5066285;28;19938;-79
2021/12/22 13:04:30;;;;;;;;;;;-0.20;99.90;;;;;;5061958;28;19925;-82
2021/12/22 13:07:02;;;;;;;;;;;-0.20;99.90;;;;;;5063823;28;19924;-82
2021/12/22 13:09:30;;;;;;;;;;;-0.20;99.90;;;;;;5061715;28;19924;-85
2021/12/22 13:12:02;;;;;;;;;;;-0.20;99.90;;;;;;5081854;28;19939;-82
2021/12/22 13:17:14;;;;;;;;;;;-0.10;99.90;;;;;;5051780;28;20015;-82
2021/12/22 13:19:41;;;;;;;;;;;-0.10;99.90;;;;;;5066502;28;19935;-82
2021/12/22 13:22:19;;;;;;;;;;;-0.10;99.90;;;;;;5082997;28;19924;-82
2021/12/22 13:24:46;;;;;;;;;;;-0.10;99.90;;;;;;5087728;28;19924;-81
2021/12/22 13:27:13;;;;;;;;;;;-0.10;99.90;;;;;;5069261;28;19924;-84
2021/12/22 13:29:40;;;;;;;;;;;-0.10;99.90;;;;;;5062289;28;19931;-81
2021/12/22 13:32:08;;;;;;;;;;;-0.10;99.90;;;;;;5060692;28;19925;-83
2021/12/22 13:34:49;;;;;;;;;;;-0.10;99.90;;;;;;5058220;28;20423;-82
2021/12/22 13:37:16;;;;;;;;;;;-0.10;99.90;;;;;;5078109;28;19985;-84
2021/12/22 13:39:45;;;;;;;;;;;-0.10;99.90;;;;;;5080667;28;19968;-82
2021/12/22 13:42:12;;;;;;;;;;;-0.10;99.90;;;;;;5084528;28;20015;-82
2021/12/22 13:44:40;;;;;;;;;;;-0.10;99.90;;;;;;5077283;28;19928;-81
2021/12/22 13:47:07;;;;;;;;;;;-0.10;99.90;;;;;;5084902;28;19977;-83
2021/12/22 13:49:34;;;;;;;;;;;-0.10;99.90;;;;;;5087654;28;19960;-82
2021/12/22 13:52:03;;;;;;;;;;;-0.10;99.90;;;;;;5086361;28;20022;-81
2021/12/22 13:54:32;;;;;;;;;;;-0.10;99.90;;;;;;5069021;28;19928;-82
2021/12/22 13:57:00;;;;;;;;;;;-0.10;99.90;;;;;;5079473;28;20346;-82
2021/12/22 13:59:29;;;;;;;;;;;0.00;99.90;;;;;;5086004;28;19935;-83
2021/12/22 14:01:57;;;;;;;;;;;-0.10;99.90;;;;;;5066608;28;19931;-81
2021/12/22 14:04:28;;;;;;;;;;;-0.10;99.90;;;;;;5069408;28;19924;-83
2021/12/22 14:06:56;;;;;;;;;;;-0.10;99.90;;;;;;5081356;28;20000;-82
2021/12/22 14:09:25;;;;;;;;;;;-0.10;99.90;;;;;;5076786;28;19931;-82
2021/12/22 14:11:57;;;;;;;;;;;-0.10;99.90;;;;;;5068999;28;19924;-82
2021/12/22 14:14:26;;;;;;;;;;;-0.10;99.90;;;;;;5069331;28;19924;-83
2021/12/22 14:16:55;;;;;;;;;;;-0.10;99.90;;;;;;5067408;28;19932;-82
2021/12/22 14:19:23;;;;;;;;;;;-0.10;99.90;;;;;;5084720;28;19930;-84
2021/12/22 14:22:00;;;;;;;;;;;-0.10;99.90;;;;;;5062592;28;19928;-82
2021/12/22 14:24:32;;;;;;;;;;;-0.10;99.90;;;;;;5083328;28;20401;-81
2021/12/22 14:27:00;;;;;;;;;;;-0.10;99.90;;;;;;5059404;28;19924;-82
2021/12/22 14:29:28;;;;;;;;;;;0.00;99.90;;;;;;5065412;28;19931;-82
2021/12/22 14:32:00;;;;;;;;;;;-0.10;99.90;;;;;;5057492;28;20428;-82
2021/12/22 14:34:27;;;;;;;;;;;-0.10;99.90;;;;;;5064346;28;19928;-83
2021/12/22 14:36:54;;;;;;;;;;;-0.10;99.90;;;;;;5070554;28;19924;-87
2021/12/22 14:39:38;;;;;;;;;;;-0.10;99.90;;;;;;5069425;28;19924;-84
2021/12/22 14:42:20;;;;;;;;;;;-0.10;99.90;;;;;;5088711;28;19978;-86
2021/12/22 14:44:47;;;;;;;;;;;-0.10;99.90;;;;;;5081898;28;19932;-85
2021/12/22 14:47:17;;;;;;;;;;;-0.10;99.90;;;;;;5081826;28;19970;-82
2021/12/22 14:49:44;;;;;;;;;;;-0.10;99.90;;;;;;5081713;28;19928;-82
2021/12/22 14:52:11;;;;;;;;;;;-0.10;99.90;;;;;;5067023;28;19924;-84
2021/12/22 14:54:38;;;;;;;;;;;0.00;99.90;;;;;;5058126;28;19924;-82
2021/12/22 14:57:05;;;;;;;;;;;0.00;99.90;;;;;;5083648;28;19932;-83
2021/12/22 14:59:35;;;;;;;;;;;-0.10;99.90;;;;;;5081425;28;19924;-87
2021/12/22 15:02:03;;;;;;;;;;;-0.10;99.90;;;;;;5083390;28;20280;-83
2021/12/22 15:04:33;;;;;;;;;;;-0.10;99.90;;;;;;5058723;28;20016;-83
2021/12/22 15:07:00;;;;;;;;;;;-0.10;99.90;;;;;;5065525;28;19931;-83
2021/12/22 15:09:27;;;;;;;;;;;-0.10;99.90;;;;;;5075268;28;19932;-86
2021/12/22 15:11:54;;;;;;;;;;;-0.10;99.90;;;;;;5073640;28;20009;-83
2021/12/22 15:14:22;;;;;;;;;;;-0.10;99.90;;;;;;5065642;28;20007;-86
2021/12/22 15:16:50;;;;;;;;;;;-0.20;99.90;;;;;;5088603;28;19936;-89
2021/12/22 15:19:17;;;;;;;;;;;-0.10;99.90;;;;;;5068925;28;19924;-93
2021/12/22 15:21:45;;;;;;;;;;;-0.10;99.90;;;;;;5071012;28;19924;-83
2021/12/22 15:24:12;;;;;;;;;;;-0.10;99.90;;;;;;5081864;28;19932;-88
2021/12/22 15:26:39;;;;;;;;;;;-0.20;99.90;;;;;;5067845;28;19924;-83
2021/12/22 15:29:09;;;;;;;;;;;-0.10;99.90;;;;;;5073891;28;19924;-82
2021/12/22 15:31:36;;;;;;;;;;;-0.10;99.90;;;;;;5072632;28;19924;-83
2021/12/22 15:34:04;;;;;;;;;;;-0.10;99.90;;;;;;5063212;28;19932;-82
2021/12/22 15:36:31;;;;;;;;;;;-0.20;99.90;;;;;;5061758;28;19934;-80
2021/12/22 15:38:58;;;;;;;;;;;-0.20;99.90;;;;;;5078889;28;19924;-80
2021/12/22 15:41:26;;;;;;;;;;;-0.20;99.90;;;;;;5078534;28;19935;-80
2021/12/22 15:43:52;;;;;;;;;;;-0.20;99.90;;;;;;5062800;28;19924;-81
2021/12/22 15:46:19;;;;;;;;;;;-0.20;99.90;;;;;;5061949;28;19924;-81
2021/12/22 15:48:47;;;;;;;;;;;-0.20;99.90;;;;;;5067924;28;19928;-83
2021/12/22 15:51:15;;;;;;;;;;;-0.20;99.90;;;;;;5080169;28;20023;-79
2021/12/22 15:53:43;;;;;;;;;;;-0.10;99.90;;;;;;5069729;28;19954;-80
2021/12/22 15:56:10;;;;;;;;;;;-0.20;99.90;;;;;;5064687;28;19924;-80
2021/12/22 15:58:37;;;;;;;;;;;-0.20;99.90;;;;;;5059315;28;20329;-80
2021/12/22 16:01:04;;;;;;;;;;;-0.20;99.90;;;;;;5084071;28;20001;-79
2021/12/22 16:03:31;;;;;;;;;;;-0.20;99.90;;;;;;5070255;28;19924;-79
2021/12/22 16:05:59;;;;;;;;;;;-0.20;99.90;;;;;;5061286;28;19959;-79
2021/12/22 16:08:27;;;;;;;;;;;-0.20;99.90;;;;;;5075410;28;19942;-79
2021/12/22 16:10:57;;;;;;;;;;;-0.20;99.90;;;;;;5067078;28;20401;-80
2021/12/22 16:13:24;;;;;;;;;;;-0.20;99.90;;;;;;5065829;28;19924;-80
2021/12/22 16:15:50;;;;;;;;;;;-0.20;99.90;;;;;;5062187;28;19924;-80
2021/12/22 16:18:18;;;;;;;;;;;-0.20;99.90;;;;;;5062900;28;19973;-79
2021/12/22 16:20:45;;;;;;;;;;;-0.20;99.90;;;;;;5078300;28;19932;-80
2021/12/22 16:23:12;;;;;;;;;;;-0.20;99.90;;;;;;5081814;28;19924;-80
2021/12/22 16:25:40;;;;;;;;;;;-0.20;99.90;;;;;;5080074;28;19947;-79
2021/12/22 16:28:07;;;;;;;;;;;-0.20;99.90;;;;;;5075631;28;19960;-79
2021/12/22 16:30:34;;;;;;;;;;;-0.20;99.90;;;;;;5071913;28;19924;-79
2021/12/22 16:33:02;;;;;;;;;;;-0.20;99.90;;;;;;5058478;28;19924;-79
2021/12/22 16:35:29;;;;;;;;;;;-0.20;99.90;;;;;;5073261;28;19928;-79
2021/12/22 16:37:56;;;;;;;;;;;-0.20;99.90;;;;;;5062720;28;19924;-79
2021/12/22 16:40:23;;;;;;;;;;;-0.20;99.90;;;;;;5078895;28;19924;-82
2021/12/22 16:42:52;;;;;;;;;;;-0.20;99.90;;;;;;5067746;28;20401;-80
2021/12/22 16:45:21;;;;;;;;;;;-0.20;99.90;;;;;;5061001;28;20336;-81
2021/12/22 16:47:53;;;;;;;;;;;-0.20;99.90;;;;;;5067175;28;20342;-81
2021/12/22 16:50:20;;;;;;;;;;;-0.20;99.90;;;;;;5081306;28;19979;-79
2021/12/22 16:52:47;;;;;;;;;;;-0.20;99.90;;;;;;5066096;28;20374;-80
2021/12/22 16:55:14;;;;;;;;;;;-0.20;99.90;;;;;;5066987;28;19963;-80
2021/12/22 16:57:42;;;;;;;;;;;-0.20;99.90;;;;;;5060681;28;19939;-80
2021/12/22 17:00:12;;;;;;;;;;;-0.20;99.90;;;;;;5078714;28;19924;-80
2021/12/22 17:02:39;;;;;;;;;;;-0.20;99.90;;;;;;5059878;28;19935;-79
2021/12/22 17:05:07;;;;;;;;;;;-0.20;99.90;;;;;;5076763;28;20378;-81
2021/12/22 17:07:34;;;;;;;;;;;-0.20;99.90;;;;;;5063051;28;20006;-80
2021/12/22 17:10:01;;;;;;;;;;;-0.20;99.90;;;;;;5062933;28;19924;-81
2021/12/22 17:12:28;;;;;;;;;;;-0.20;99.90;;;;;;5076875;28;19925;-80
2021/12/22 17:14:55;;;;;;;;;;;-0.20;99.90;;;;;;5064614;28;20011;-79
2021/12/22 17:17:26;;;;;;;;;;;-0.20;99.90;;;;;;5062671;28;19931;-81
2021/12/22 17:19:53;;;;;;;;;;;-0.20;99.90;;;;;;5063123;28;20368;-87
2021/12/22 17:22:20;;;;;;;;;;;-0.20;99.90;;;;;;5079331;28;20297;-80
2021/12/22 17:24:47;;;;;;;;;;;-0.20;99.90;;;;;;5079390;28;19928;-80
2021/12/22 17:27:14;;;;;;;;;;;-0.20;99.90;;;;;;5083311;28;20376;-80
2021/12/22 17:29:41;;;;;;;;;;;-0.20;99.90;;;;;;5077420;28;19928;-84
2021/12/22 23:32:11;;;;;;;;;;;-0.70;99.90;;;;;;6136368;22;19957;-79
2021/12/22 23:34:39;;;;;;;;;;;-0.80;99.90;;;;;;4963222;28;19936;-78
2021/12/22 23:37:11;;;;;;;;;;;-0.80;99.90;;;;;;4967325;28;20216;-78
2021/12/22 23:39:51;;;;;;;;;;;-0.80;99.90;;;;;;4963615;28;19926;-79
2021/12/22 23:42:44;;;;;;;;;;;-0.80;99.90;;;;;;4985422;28;19965;-79
2021/12/22 23:48:59;;;;;;;;;;;-0.80;99.90;;;;;;4973872;28;20388;-78
2021/12/22 23:50:57;;;;;;;;;;;-0.80;99.90;;;;;;4969461;28;19933;-79
2021/12/22 23:53:25;;;;;;;;;;;-0.80;99.90;;;;;;4972415;28;20395;-78
2021/12/22 23:55:51;;;;;;;;;;;-0.80;99.90;;;;;;4974926;28;20044;-79
2021/12/22 23:58:21;;;;;;;;;;;-0.80;99.90;;;;;;4988701;28;19970;-78
